sensor_id;sensor_type;location;lat;lon;timestamp;pressure;altitude;pressure_sealevel;temperature;humidity
68230;BME280;55048;52.220;5.160;2022-07-29T00:00:34;101690.63;;;18.11;56.23
68230;BME280;55048;52.220;5.160;2022-07-29T00:02:59;101724.03;;;18.30;56.24
68230;BME280;55048;52.220;5.160;2022-07-29T00:05:25;101701.69;;;18.15;56.50
68230;BME280;55048;52.220;5.160;2022-07-29T00:07:50;101695.19;;;18.10;56.63
68230;BME280;55048;52.220;5.160;2022-07-29T00:10:15;101689.81;;;18.10;56.44
68230;BME280;55048;52.220;5.160;2022-07-29T00:12:41;101700.88;;;18.14;56.58
68230;BME280;55048;52.220;5.160;2022-07-29T00:15:07;101690.63;;;18.16;56.47
68230;BME280;55048;52.220;5.160;2022-07-29T00:17:32;101671.19;;;17.99;56.81
68230;BME280;55048;52.220;5.160;2022-07-29T00:19:59;101690.91;;;18.15;56.89
68230;BME280;55048;52.220;5.160;2022-07-29T00:22:24;101681.47;;;18.12;56.76
68230;BME280;55048;52.220;5.160;2022-07-29T00:24:50;101701.41;;;18.26;56.65
68230;BME280;55048;52.220;5.160;2022-07-29T00:27:16;101686.56;;;18.14;56.82
68230;BME280;55048;52.220;5.160;2022-07-29T00:29:42;101657.44;;;17.85;57.56
68230;BME280;55048;52.220;5.160;2022-07-29T00:32:07;101685.75;;;17.98;57.47
68230;BME280;55048;52.220;5.160;2022-07-29T00:34:33;101690.63;;;18.06;57.26
68230;BME280;55048;52.220;5.160;2022-07-29T00:37:17;101670.94;;;17.95;57.22
68230;BME280;55048;52.220;5.160;2022-07-29T00:39:42;101642.88;;;17.76;57.67
68230;BME280;55048;52.220;5.160;2022-07-29T00:42:09;101608.09;;;17.49;57.84
68230;BME280;55048;52.220;5.160;2022-07-29T00:44:39;101664.16;;;17.77;58.08
68230;BME280;55048;52.220;5.160;2022-07-29T00:47:04;101690.59;;;17.96;57.97
68230;BME280;55048;52.220;5.160;2022-07-29T00:49:30;101636.38;;;17.67;57.67
68230;BME280;55048;52.220;5.160;2022-07-29T00:51:55;101653.13;;;17.74;57.95
68230;BME280;55048;52.220;5.160;2022-07-29T00:54:21;101661.47;;;17.77;58.47
68230;BME280;55048;52.220;5.160;2022-07-29T00:56:47;101633.16;;;17.65;58.08
68230;BME280;55048;52.220;5.160;2022-07-29T00:59:12;101637.44;;;17.66;58.10
68230;BME280;55048;52.220;5.160;2022-07-29T01:01:38;101656.34;;;17.76;58.17
68230;BME280;55048;52.220;5.160;2022-07-29T01:04:05;101653.41;;;17.82;58.28
68230;BME280;55048;52.220;5.160;2022-07-29T01:06:31;101626.41;;;17.62;58.18
68230;BME280;55048;52.220;5.160;2022-07-29T01:08:57;101655.00;;;17.73;57.82
68230;BME280;55048;52.220;5.160;2022-07-29T01:11:23;101640.41;;;17.69;58.15
68230;BME280;55048;52.220;5.160;2022-07-29T01:13:49;101648.81;;;17.78;57.77
68230;BME280;55048;52.220;5.160;2022-07-29T01:16:25;101654.72;;;17.80;58.27
68230;BME280;55048;52.220;5.160;2022-07-29T01:18:58;101664.47;;;17.86;58.01
68230;BME280;55048;52.220;5.160;2022-07-29T01:21:50;101657.72;;;17.83;58.14
68230;BME280;55048;52.220;5.160;2022-07-29T01:27:32;101655.47;;;17.70;58.52
68230;BME280;55048;52.220;5.160;2022-07-29T01:30:03;101655.47;;;17.70;58.59
68230;BME280;55048;52.220;5.160;2022-07-29T01:32:33;101632.81;;;17.51;58.50
68230;BME280;55048;52.220;5.160;2022-07-29T01:35:14;101648.22;;;17.71;58.37
68230;BME280;55048;52.220;5.160;2022-07-29T01:37:57;101652.84;;;17.75;58.05
68230;BME280;55048;52.220;5.160;2022-07-29T01:40:35;101644.19;;;17.63;58.42
68230;BME280;55048;52.220;5.160;2022-07-29T01:43:09;101650.38;;;17.64;58.36
68230;BME280;55048;52.220;5.160;2022-07-29T01:45:50;101662.22;;;17.68;58.73
68230;BME280;55048;52.220;5.160;2022-07-29T01:48:21;101653.28;;;17.62;58.34
68230;BME280;55048;52.220;5.160;2022-07-29T01:50:50;101637.69;;;17.59;58.35
68230;BME280;55048;52.220;5.160;2022-07-29T01:53:23;101642.28;;;17.58;58.44
68230;BME280;55048;52.220;5.160;2022-07-29T01:55:51;101595.63;;;17.32;58.38
68230;BME280;55048;52.220;5.160;2022-07-29T01:58:19;101617.19;;;17.43;58.39
68230;BME280;55048;52.220;5.160;2022-07-29T02:00:45;101636.31;;;17.51;58.43
68230;BME280;55048;52.220;5.160;2022-07-29T02:03:12;101635.50;;;17.51;58.43
68230;BME280;55048;52.220;5.160;2022-07-29T02:05:42;101648.19;;;17.60;58.68
68230;BME280;55048;52.220;5.160;2022-07-29T02:08:10;101647.88;;;17.52;58.53
68230;BME280;55048;52.220;5.160;2022-07-29T02:10:39;101652.19;;;17.53;58.49
68230;BME280;55048;52.220;5.160;2022-07-29T02:13:05;101609.03;;;17.22;58.60
68230;BME280;55048;52.220;5.160;2022-07-29T02:15:34;101624.97;;;17.39;58.33
68230;BME280;55048;52.220;5.160;2022-07-29T02:18:27;101571.88;;;17.09;58.67
68230;BME280;55048;52.220;5.160;2022-07-29T02:20:54;101625.81;;;17.40;58.46
68230;BME280;55048;52.220;5.160;2022-07-29T02:23:23;101627.66;;;17.39;58.53
68230;BME280;55048;52.220;5.160;2022-07-29T02:25:52;101641.38;;;17.43;58.69
68230;BME280;55048;52.220;5.160;2022-07-29T02:28:19;101645.19;;;17.52;58.71
68230;BME280;55048;52.220;5.160;2022-07-29T02:30:46;101652.75;;;17.55;58.86
68230;BME280;55048;52.220;5.160;2022-07-29T02:33:14;101658.13;;;17.55;58.46
68230;BME280;55048;52.220;5.160;2022-07-29T02:35:41;101658.66;;;17.57;58.42
68230;BME280;55048;52.220;5.160;2022-07-29T02:38:09;101619.59;;;17.39;58.43
68230;BME280;55048;52.220;5.160;2022-07-29T02:40:56;101637.63;;;17.44;58.45
68230;BME280;55048;52.220;5.160;2022-07-29T02:43:24;101646.75;;;17.43;58.62
68230;BME280;55048;52.220;5.160;2022-07-29T02:45:52;101619.31;;;17.30;58.65
68230;BME280;55048;52.220;5.160;2022-07-29T02:48:22;101634.41;;;17.42;58.77
68230;BME280;55048;52.220;5.160;2022-07-29T02:51:01;101610.66;;;17.23;58.91
68230;BME280;55048;52.220;5.160;2022-07-29T02:53:32;101584.97;;;16.95;59.00
68230;BME280;55048;52.220;5.160;2022-07-29T02:56:08;101622.50;;;17.22;59.11
68230;BME280;55048;52.220;5.160;2022-07-29T02:58:42;101604.72;;;17.16;58.83
68230;BME280;55048;52.220;5.160;2022-07-29T03:01:21;101628.66;;;17.23;59.24
68230;BME280;55048;52.220;5.160;2022-07-29T03:03:49;101636.78;;;17.33;58.81
68230;BME280;55048;52.220;5.160;2022-07-29T03:06:15;101614.63;;;17.16;58.86
68230;BME280;55048;52.220;5.160;2022-07-29T03:08:43;101617.38;;;17.21;58.74
68230;BME280;55048;52.220;5.160;2022-07-29T03:11:10;101617.66;;;17.24;58.72
68230;BME280;55048;52.220;5.160;2022-07-29T03:13:36;101606.56;;;17.16;58.87
68230;BME280;55048;52.220;5.160;2022-07-29T03:16:02;101619.00;;;17.27;58.71
68230;BME280;55048;52.220;5.160;2022-07-29T03:18:28;101592.31;;;17.10;58.79
68230;BME280;55048;52.220;5.160;2022-07-29T03:20:54;101612.28;;;17.24;58.76
68230;BME280;55048;52.220;5.160;2022-07-29T03:23:21;101596.94;;;17.20;58.68
68230;BME280;55048;52.220;5.160;2022-07-29T03:25:48;101625.50;;;17.36;58.75
68230;BME280;55048;52.220;5.160;2022-07-29T03:28:14;101601.78;;;17.23;58.51
68230;BME280;55048;52.220;5.160;2022-07-29T03:30:40;101610.16;;;17.31;58.57
68230;BME280;55048;52.220;5.160;2022-07-29T03:33:05;101602.38;;;17.30;58.45
68230;BME280;55048;52.220;5.160;2022-07-29T03:35:30;101611.50;;;17.34;58.41
68230;BME280;55048;52.220;5.160;2022-07-29T03:37:57;101596.69;;;17.21;58.36
68230;BME280;55048;52.220;5.160;2022-07-29T03:40:27;101582.94;;;17.13;58.28
68230;BME280;55048;52.220;5.160;2022-07-29T03:42:56;101641.94;;;17.40;58.39
68230;BME280;55048;52.220;5.160;2022-07-29T03:45:23;101615.84;;;17.40;58.41
68230;BME280;55048;52.220;5.160;2022-07-29T03:47:57;101599.38;;;17.26;58.47
68230;BME280;55048;52.220;5.160;2022-07-29T03:50:24;101608.00;;;17.28;58.32
68230;BME280;55048;52.220;5.160;2022-07-29T03:52:51;101591.28;;;17.16;58.40
68230;BME280;55048;52.220;5.160;2022-07-29T03:55:16;101601.50;;;17.19;58.54
68230;BME280;55048;52.220;5.160;2022-07-29T03:57:42;101614.16;;;17.29;58.57
68230;BME280;55048;52.220;5.160;2022-07-29T04:00:10;101610.16;;;17.31;58.43
68230;BME280;55048;52.220;5.160;2022-07-29T04:02:36;101614.97;;;17.29;58.30
68230;BME280;55048;52.220;5.160;2022-07-29T04:05:02;101578.88;;;17.10;58.25
68230;BME280;55048;52.220;5.160;2022-07-29T04:07:27;101583.94;;;17.06;58.32
68230;BME280;55048;52.220;5.160;2022-07-29T04:09:53;101584.53;;;17.08;58.41
68230;BME280;55048;52.220;5.160;2022-07-29T04:12:18;101612.03;;;17.26;58.56
68230;BME280;55048;52.220;5.160;2022-07-29T04:14:43;101582.13;;;17.12;58.47
68230;BME280;55048;52.220;5.160;2022-07-29T04:17:09;101600.38;;;17.10;58.62
68230;BME280;55048;52.220;5.160;2022-07-29T04:19:34;101617.41;;;17.26;58.38
68230;BME280;55048;52.220;5.160;2022-07-29T04:22:00;101605.78;;;17.15;58.47
68230;BME280;55048;52.220;5.160;2022-07-29T04:24:27;101614.41;;;17.17;58.79
68230;BME280;55048;52.220;5.160;2022-07-29T04:26:53;101601.75;;;17.13;58.46
68230;BME280;55048;52.220;5.160;2022-07-29T04:29:18;101609.56;;;17.24;58.67
68230;BME280;55048;52.220;5.160;2022-07-29T04:31:45;101607.16;;;17.23;58.42
68230;BME280;55048;52.220;5.160;2022-07-29T04:34:11;101602.63;;;17.28;58.61
68230;BME280;55048;52.220;5.160;2022-07-29T04:36:36;101585.06;;;17.11;58.27
68230;BME280;55048;52.220;5.160;2022-07-29T04:39:02;101616.84;;;17.29;58.35
68230;BME280;55048;52.220;5.160;2022-07-29T04:41:28;101574.56;;;17.09;58.52
68230;BME280;55048;52.220;5.160;2022-07-29T04:43:54;101569.19;;;17.04;58.38
68230;BME280;55048;52.220;5.160;2022-07-29T04:46:19;101603.94;;;17.21;58.80
68230;BME280;55048;52.220;5.160;2022-07-29T04:48:45;101598.50;;;17.16;58.70
68230;BME280;55048;52.220;5.160;2022-07-29T04:51:12;101605.78;;;17.20;58.62
68230;BME280;55048;52.220;5.160;2022-07-29T04:53:37;101606.88;;;17.24;58.87
68230;BME280;55048;52.220;5.160;2022-07-29T04:56:03;101579.16;;;17.14;58.77
68230;BME280;55048;52.220;5.160;2022-07-29T04:58:28;101611.47;;;17.24;59.06
68230;BME280;55048;52.220;5.160;2022-07-29T05:00:54;101581.84;;;17.08;58.90
68230;BME280;55048;52.220;5.160;2022-07-29T05:03:19;101589.59;;;17.05;59.27
68230;BME280;55048;52.220;5.160;2022-07-29T05:05:45;101594.47;;;17.08;59.13
68230;BME280;55048;52.220;5.160;2022-07-29T05:08:10;101592.06;;;17.12;58.86
68230;BME280;55048;52.220;5.160;2022-07-29T05:10:35;101625.75;;;17.34;58.98
68230;BME280;55048;52.220;5.160;2022-07-29T05:13:07;101623.91;;;17.35;59.05
68230;BME280;55048;52.220;5.160;2022-07-29T05:15:33;101619.34;;;17.41;58.69
68230;BME280;55048;52.220;5.160;2022-07-29T05:18:01;101618.00;;;17.43;58.90
68230;BME280;55048;52.220;5.160;2022-07-29T05:20:27;101617.75;;;17.45;58.82
68230;BME280;55048;52.220;5.160;2022-07-29T05:22:55;101618.00;;;17.48;58.79
68230;BME280;55048;52.220;5.160;2022-07-29T05:25:20;101597.25;;;17.33;58.65
68230;BME280;55048;52.220;5.160;2022-07-29T05:27:46;101614.50;;;17.48;58.70
68230;BME280;55048;52.220;5.160;2022-07-29T05:30:12;101606.19;;;17.44;58.57
68230;BME280;55048;52.220;5.160;2022-07-29T05:32:37;101604.03;;;17.46;58.73
68230;BME280;55048;52.220;5.160;2022-07-29T05:35:02;101599.75;;;17.50;58.48
68230;BME280;55048;52.220;5.160;2022-07-29T05:37:28;101608.63;;;17.56;58.42
68230;BME280;55048;52.220;5.160;2022-07-29T05:39:53;101575.44;;;17.25;58.71
68230;BME280;55048;52.220;5.160;2022-07-29T05:42:19;101550.91;;;17.11;58.65
68230;BME280;55048;52.220;5.160;2022-07-29T05:44:44;101580.81;;;17.25;58.70
68230;BME280;55048;52.220;5.160;2022-07-29T05:47:10;101626.13;;;17.53;58.83
68230;BME280;55048;52.220;5.160;2022-07-29T05:49:36;101584.09;;;17.32;58.79
68230;BME280;55048;52.220;5.160;2022-07-29T05:52:02;101619.69;;;17.65;58.75
68230;BME280;55048;52.220;5.160;2022-07-29T05:54:28;101570.38;;;17.33;58.76
68230;BME280;55048;52.220;5.160;2022-07-29T05:56:53;101574.44;;;17.36;58.85
68230;BME280;55048;52.220;5.160;2022-07-29T05:59:18;101626.44;;;17.72;58.52
68230;BME280;55048;52.220;5.160;2022-07-29T06:01:44;101611.69;;;17.75;58.37
68230;BME280;55048;52.220;5.160;2022-07-29T06:04:09;101594.97;;;17.63;58.45
68230;BME280;55048;52.220;5.160;2022-07-29T06:06:34;101636.22;;;18.04;58.20
68230;BME280;55048;52.220;5.160;2022-07-29T06:09:01;101643.78;;;18.22;57.64
68230;BME280;55048;52.220;5.160;2022-07-29T06:11:27;101615.53;;;18.15;57.35
68230;BME280;55048;52.220;5.160;2022-07-29T06:13:52;101610.38;;;18.08;57.44
68230;BME280;55048;52.220;5.160;2022-07-29T06:16:18;101621.44;;;18.06;57.75
68230;BME280;55048;52.220;5.160;2022-07-29T06:18:44;101627.63;;;18.12;57.68
68230;BME280;55048;52.220;5.160;2022-07-29T06:21:10;101597.72;;;18.03;57.64
68230;BME280;55048;52.220;5.160;2022-07-29T06:23:39;101628.19;;;18.45;57.19
68230;BME280;55048;52.220;5.160;2022-07-29T06:26:04;101632.78;;;18.80;56.63
68230;BME280;55048;52.220;5.160;2022-07-29T06:28:31;101634.88;;;19.08;55.88
68230;BME280;55048;52.220;5.160;2022-07-29T06:30:57;101623.25;;;19.18;55.43
68230;BME280;55048;52.220;5.160;2022-07-29T06:33:22;101597.38;;;19.17;55.44
68230;BME280;55048;52.220;5.160;2022-07-29T06:35:48;101600.06;;;19.17;55.08
68230;BME280;55048;52.220;5.160;2022-07-29T06:38:14;101623.94;;;19.49;54.12
68230;BME280;55048;52.220;5.160;2022-07-29T06:40:41;101646.78;;;19.67;54.37
68230;BME280;55048;52.220;5.160;2022-07-29T06:43:29;101643.72;;;19.89;53.44
68230;BME280;55048;52.220;5.160;2022-07-29T06:45:58;101629.72;;;19.87;53.16
68230;BME280;55048;52.220;5.160;2022-07-29T06:48:23;101653.72;;;19.88;53.59
68230;BME280;55048;52.220;5.160;2022-07-29T06:50:49;101654.31;;;19.75;53.82
68230;BME280;55048;52.220;5.160;2022-07-29T06:53:14;101659.97;;;19.79;54.02
68230;BME280;55048;52.220;5.160;2022-07-29T06:55:40;101622.34;;;19.38;54.32
68230;BME280;55048;52.220;5.160;2022-07-29T06:58:05;101674.34;;;19.69;54.27
68230;BME280;55048;52.220;5.160;2022-07-29T07:00:32;101645.56;;;19.34;54.10
68230;BME280;55048;52.220;5.160;2022-07-29T07:02:57;101630.00;;;19.10;54.70
68230;BME280;55048;52.220;5.160;2022-07-29T07:05:22;101655.31;;;19.25;54.46
68230;BME280;55048;52.220;5.160;2022-07-29T07:07:48;101654.50;;;19.24;54.46
68230;BME280;55048;52.220;5.160;2022-07-29T07:10:13;101660.19;;;19.18;55.01
68230;BME280;55048;52.220;5.160;2022-07-29T07:12:39;101690.06;;;19.36;55.19
68230;BME280;55048;52.220;5.160;2022-07-29T07:15:05;101672.56;;;19.24;55.23
68230;BME280;55048;52.220;5.160;2022-07-29T07:17:31;101676.59;;;19.36;54.77
68230;BME280;55048;52.220;5.160;2022-07-29T07:19:56;101638.06;;;19.21;54.99
68230;BME280;55048;52.220;5.160;2022-07-29T07:22:22;101666.56;;;19.47;54.71
68230;BME280;55048;52.220;5.160;2022-07-29T07:24:47;101658.47;;;19.47;54.88
68230;BME280;55048;52.220;5.160;2022-07-29T07:27:13;101661.44;;;19.51;54.77
68230;BME280;55048;52.220;5.160;2022-07-29T07:29:38;101673.81;;;19.52;55.17
68230;BME280;55048;52.220;5.160;2022-07-29T07:32:06;101646.38;;;19.34;54.99
68230;BME280;55048;52.220;5.160;2022-07-29T07:34:32;101649.66;;;19.26;54.95
68230;BME280;55048;52.220;5.160;2022-07-29T07:36:57;101642.84;;;19.39;55.09
68230;BME280;55048;52.220;5.160;2022-07-29T07:39:23;101644.94;;;19.52;54.80
68230;BME280;55048;52.220;5.160;2022-07-29T07:41:48;101646.03;;;19.61;54.84
68230;BME280;55048;52.220;5.160;2022-07-29T07:44:14;101647.25;;;19.84;54.59
68230;BME280;55048;52.220;5.160;2022-07-29T07:46:39;101661.13;;;20.12;54.23
68230;BME280;55048;52.220;5.160;2022-07-29T07:49:04;101650.84;;;20.14;53.90
68230;BME280;55048;52.220;5.160;2022-07-29T07:51:30;101654.84;;;20.22;54.02
68230;BME280;55048;52.220;5.160;2022-07-29T07:53:55;101642.94;;;20.23;53.67
68230;BME280;55048;52.220;5.160;2022-07-29T07:56:20;101656.03;;;20.45;53.53
68230;BME280;55048;52.220;5.160;2022-07-29T07:58:46;101631.25;;;20.32;53.08
68230;BME280;55048;52.220;5.160;2022-07-29T08:01:11;101624.53;;;20.30;53.43
68230;BME280;55048;52.220;5.160;2022-07-29T08:03:37;101651.66;;;20.54;53.34
68230;BME280;55048;52.220;5.160;2022-07-29T08:06:03;101628.94;;;20.55;53.06
68230;BME280;55048;52.220;5.160;2022-07-29T08:08:29;101595.25;;;20.47;53.16
68230;BME280;55048;52.220;5.160;2022-07-29T08:10:54;101654.19;;;20.98;52.49
68230;BME280;55048;52.220;5.160;2022-07-29T08:13:25;101653.94;;;21.00;52.11
68230;BME280;55048;52.220;5.160;2022-07-29T08:15:53;101644.72;;;21.01;52.48
68230;BME280;55048;52.220;5.160;2022-07-29T08:18:29;101644.97;;;21.04;52.10
68230;BME280;55048;52.220;5.160;2022-07-29T08:20:55;101672.13;;;21.18;52.30
68230;BME280;55048;52.220;5.160;2022-07-29T08:23:21;101668.03;;;21.21;51.83
68230;BME280;55048;52.220;5.160;2022-07-29T08:25:49;101669.59;;;21.27;51.69
68230;BME280;55048;52.220;5.160;2022-07-29T08:28:14;101646.38;;;21.21;51.39
68230;BME280;55048;52.220;5.160;2022-07-29T08:30:39;101648.31;;;21.44;51.21
68230;BME280;55048;52.220;5.160;2022-07-29T08:33:05;101640.31;;;21.34;51.31
68230;BME280;55048;52.220;5.160;2022-07-29T08:35:30;101667.28;;;21.63;50.37
68230;BME280;55048;52.220;5.160;2022-07-29T08:37:56;101669.03;;;21.73;49.65
68230;BME280;55048;52.220;5.160;2022-07-29T08:40:22;101655.91;;;21.85;49.84
68230;BME280;55048;52.220;5.160;2022-07-29T08:42:48;101664.75;;;22.09;49.66
68230;BME280;55048;52.220;5.160;2022-07-29T08:45:15;101668.34;;;22.05;49.90
68230;BME280;55048;52.220;5.160;2022-07-29T08:47:40;101656.63;;;21.90;48.70
68230;BME280;55048;52.220;5.160;2022-07-29T08:50:09;101652.69;;;21.83;48.43
68230;BME280;55048;52.220;5.160;2022-07-29T08:52:37;101679.47;;;22.03;48.57
68230;BME280;55048;52.220;5.160;2022-07-29T08:55:04;101656.47;;;21.82;48.39
68230;BME280;55048;52.220;5.160;2022-07-29T08:57:30;101658.19;;;21.97;47.90
68230;BME280;55048;52.220;5.160;2022-07-29T08:59:57;101652.97;;;22.19;48.09
68230;BME280;55048;52.220;5.160;2022-07-29T09:02:28;101675.03;;;22.31;47.94
68230;BME280;55048;52.220;5.160;2022-07-29T09:04:54;101654.31;;;22.22;47.71
68230;BME280;55048;52.220;5.160;2022-07-29T09:07:20;101668.78;;;22.31;47.36
68230;BME280;55048;52.220;5.160;2022-07-29T09:09:45;101677.28;;;22.43;47.83
68230;BME280;55048;52.220;5.160;2022-07-29T09:12:11;101675.78;;;22.51;47.55
68230;BME280;55048;52.220;5.160;2022-07-29T09:14:40;101658.50;;;22.47;47.78
68230;BME280;55048;52.220;5.160;2022-07-29T09:17:07;101674.03;;;22.74;47.72
68230;BME280;55048;52.220;5.160;2022-07-29T09:19:34;101664.13;;;22.83;47.08
68230;BME280;55048;52.220;5.160;2022-07-29T09:22:04;101641.00;;;22.72;46.47
68230;BME280;55048;52.220;5.160;2022-07-29T09:26:58;101642.25;;;22.93;46.29
68230;BME280;55048;52.220;5.160;2022-07-29T09:29:23;101624.81;;;22.99;46.57
68230;BME280;55048;52.220;5.160;2022-07-29T09:31:52;101622.59;;;23.01;45.96
68230;BME280;55048;52.220;5.160;2022-07-29T09:34:26;101638.44;;;23.08;44.49
68230;BME280;55048;52.220;5.160;2022-07-29T09:36:53;101657.44;;;23.08;44.96
68230;BME280;55048;52.220;5.160;2022-07-29T09:39:31;101639.78;;;23.10;45.23
68230;BME280;55048;52.220;5.160;2022-07-29T09:42:01;101638.97;;;23.37;45.19
68230;BME280;55048;52.220;5.160;2022-07-29T09:44:41;101649.59;;;23.61;44.92
68230;BME280;55048;52.220;5.160;2022-07-29T09:47:06;101614.63;;;23.46;44.83
68230;BME280;55048;52.220;5.160;2022-07-29T09:49:33;101581.47;;;23.22;44.58
68230;BME280;55048;52.220;5.160;2022-07-29T09:52:07;101659.63;;;23.61;44.62
68230;BME280;55048;52.220;5.160;2022-07-29T09:54:33;101650.00;;;23.68;44.50
68230;BME280;55048;52.220;5.160;2022-07-29T09:57:06;101630.59;;;23.48;44.73
68230;BME280;55048;52.220;5.160;2022-07-29T09:59:32;101649.00;;;23.64;44.37
68230;BME280;55048;52.220;5.160;2022-07-29T10:01:59;101661.91;;;23.95;43.52
68230;BME280;55048;52.220;5.160;2022-07-29T10:04:36;101646.72;;;23.94;43.70
68230;BME280;55048;52.220;5.160;2022-07-29T10:07:02;101652.19;;;24.16;43.46
68230;BME280;55048;52.220;5.160;2022-07-29T10:09:30;101669.41;;;24.57;43.47
68230;BME280;55048;52.220;5.160;2022-07-29T10:12:10;101662.88;;;24.89;43.31
68230;BME280;55048;52.220;5.160;2022-07-29T10:14:36;101665.66;;;25.06;43.63
68230;BME280;55048;52.220;5.160;2022-07-29T10:17:04;101664.69;;;25.02;44.09
68230;BME280;55048;52.220;5.160;2022-07-29T10:19:30;101630.59;;;24.96;43.88
68230;BME280;55048;52.220;5.160;2022-07-29T10:22:01;101627.69;;;24.92;44.07
68230;BME280;55048;52.220;5.160;2022-07-29T10:24:28;101651.19;;;24.88;44.88
68230;BME280;55048;52.220;5.160;2022-07-29T10:27:00;101648.81;;;24.96;45.33
68230;BME280;55048;52.220;5.160;2022-07-29T10:29:26;101651.84;;;25.25;44.87
68230;BME280;55048;52.220;5.160;2022-07-29T10:40:39;101622.44;;;25.62;41.92
68230;BME280;55048;52.220;5.160;2022-07-29T10:43:23;101632.22;;;25.72;43.65
68230;BME280;55048;52.220;5.160;2022-07-29T10:45:55;101657.25;;;25.91;41.91
68230;BME280;55048;52.220;5.160;2022-07-29T10:48:21;101626.78;;;25.72;41.90
68230;BME280;55048;52.220;5.160;2022-07-29T10:53:19;101623.59;;;25.95;40.48
68230;BME280;55048;52.220;5.160;2022-07-29T10:55:46;101635.63;;;26.12;41.20
68230;BME280;55048;52.220;5.160;2022-07-29T10:58:22;101655.47;;;26.30;41.43
68230;BME280;55048;52.220;5.160;2022-07-29T11:00:51;101609.97;;;25.87;41.07
68230;BME280;55048;52.220;5.160;2022-07-29T11:06:08;101628.56;;;26.02;41.33
68230;BME280;55048;52.220;5.160;2022-07-29T11:08:34;101649.88;;;26.09;41.45
68230;BME280;55048;52.220;5.160;2022-07-29T11:16:09;101625.13;;;25.44;42.65
68230;BME280;55048;52.220;5.160;2022-07-29T11:18:34;101613.13;;;25.37;43.03
68230;BME280;55048;52.220;5.160;2022-07-29T11:21:00;101606.25;;;25.48;42.69
68230;BME280;55048;52.220;5.160;2022-07-29T11:23:32;101645.22;;;25.83;42.27
68230;BME280;55048;52.220;5.160;2022-07-29T11:29:03;101619.53;;;25.50;41.48
68230;BME280;55048;52.220;5.160;2022-07-29T11:31:41;101655.84;;;25.36;41.48
68230;BME280;55048;52.220;5.160;2022-07-29T11:39:41;101631.16;;;24.84;42.31
68230;BME280;55048;52.220;5.160;2022-07-29T11:47:34;101638.91;;;25.48;40.99
68230;BME280;55048;52.220;5.160;2022-07-29T11:50:01;101655.25;;;25.48;41.75
68230;BME280;55048;52.220;5.160;2022-07-29T11:52:38;101632.84;;;25.42;41.84
68230;BME280;55048;52.220;5.160;2022-07-29T11:55:16;101654.34;;;25.70;41.55
68230;BME280;55048;52.220;5.160;2022-07-29T11:57:56;101641.34;;;25.67;42.12
68230;BME280;55048;52.220;5.160;2022-07-29T12:00:37;101650.84;;;25.95;41.51
68230;BME280;55048;52.220;5.160;2022-07-29T12:03:08;101650.06;;;25.95;41.48
68230;BME280;55048;52.220;5.160;2022-07-29T12:05:37;101635.13;;;26.01;41.28
68230;BME280;55048;52.220;5.160;2022-07-29T12:08:13;101641.22;;;26.15;41.57
68230;BME280;55048;52.220;5.160;2022-07-29T12:10:40;101633.19;;;26.19;40.75
68230;BME280;55048;52.220;5.160;2022-07-29T12:13:05;101649.88;;;26.09;41.16
68230;BME280;55048;52.220;5.160;2022-07-29T12:15:31;101642.50;;;26.09;40.99
68230;BME280;55048;52.220;5.160;2022-07-29T12:17:57;101644.09;;;26.19;41.12
68230;BME280;55048;52.220;5.160;2022-07-29T12:20:28;101659.31;;;26.29;41.23
68230;BME280;55048;52.220;5.160;2022-07-29T12:22:54;101629.50;;;26.06;40.49
68230;BME280;55048;52.220;5.160;2022-07-29T12:25:21;101654.84;;;26.33;40.62
68230;BME280;55048;52.220;5.160;2022-07-29T12:27:47;101639.63;;;26.14;41.70
68230;BME280;55048;52.220;5.160;2022-07-29T12:30:22;101641.03;;;26.20;41.41
68230;BME280;55048;52.220;5.160;2022-07-29T12:32:48;101643.75;;;26.29;41.11
68230;BME280;55048;52.220;5.160;2022-07-29T12:35:18;101636.09;;;26.23;40.89
68230;BME280;55048;52.220;5.160;2022-07-29T12:37:46;101656.41;;;26.42;40.32
68230;BME280;55048;52.220;5.160;2022-07-29T12:40:17;101596.78;;;26.15;40.24
68230;BME280;55048;52.220;5.160;2022-07-29T12:45:31;101655.94;;;26.40;40.12
68230;BME280;55048;52.220;5.160;2022-07-29T12:47:56;101632.22;;;26.24;40.38
68230;BME280;55048;52.220;5.160;2022-07-29T12:50:22;101660.44;;;26.36;40.78
68230;BME280;55048;52.220;5.160;2022-07-29T12:52:47;101638.28;;;26.38;40.08
68230;BME280;55048;52.220;5.160;2022-07-29T12:55:13;101663.19;;;26.54;40.00
68230;BME280;55048;52.220;5.160;2022-07-29T12:57:50;101644.88;;;26.37;40.19
68230;BME280;55048;52.220;5.160;2022-07-29T13:00:22;101647.75;;;26.58;39.92
68230;BME280;55048;52.220;5.160;2022-07-29T13:02:57;101628.97;;;26.39;39.59
68230;BME280;55048;52.220;5.160;2022-07-29T13:05:23;101653.19;;;26.58;39.76
68230;BME280;55048;52.220;5.160;2022-07-29T13:07:50;101643.91;;;26.59;40.18
68230;BME280;55048;52.220;5.160;2022-07-29T13:10:20;101621.28;;;26.41;40.25
68230;BME280;55048;52.220;5.160;2022-07-29T13:13:10;101644.38;;;26.61;40.18
68230;BME280;55048;52.220;5.160;2022-07-29T13:15:41;101631.25;;;26.45;39.54
68230;BME280;55048;52.220;5.160;2022-07-29T13:18:27;101645.19;;;26.53;40.12
68230;BME280;55048;52.220;5.160;2022-07-29T13:20:52;101642.63;;;26.56;39.43
68230;BME280;55048;52.220;5.160;2022-07-29T13:23:17;101627.03;;;26.57;39.79
68230;BME280;55048;52.220;5.160;2022-07-29T13:25:43;101636.53;;;26.59;39.75
68230;BME280;55048;52.220;5.160;2022-07-29T13:28:08;101627.38;;;26.64;39.48
68230;BME280;55048;52.220;5.160;2022-07-29T13:30:34;101646.88;;;26.83;39.34
68230;BME280;55048;52.220;5.160;2022-07-29T13:32:59;101624.41;;;26.86;39.29
68230;BME280;55048;52.220;5.160;2022-07-29T13:35:24;101612.34;;;26.87;39.29